sensor_id;sensor_type;location;lat;lon;timestamp;P1;durP1;ratioP1;P2;durP2;ratioP2
57848;SDS011;68645;44.762;21.516;2023-04-06T00:01:01;36.10;;;23.63;;
57848;SDS011;68645;44.762;21.516;2023-04-06T00:03:27;34.33;;;24.15;;
57848;SDS011;68645;44.762;21.516;2023-04-06T00:05:54;49.50;;;27.60;;
57848;SDS011;68645;44.762;21.516;2023-04-06T00:08:20;58.67;;;29.95;;
57848;SDS011;68645;44.762;21.516;2023-04-06T00:10:48;66.95;;;34.42;;
57848;SDS011;68645;44.762;21.516;2023-04-06T00:13:15;66.85;;;35.50;;
57848;SDS011;68645;44.762;21.516;2023-04-06T00:15:41;40.47;;;24.73;;
57848;SDS011;68645;44.762;21.516;2023-04-06T00:18:07;44.67;;;28.10;;
57848;SDS011;68645;44.762;21.516;2023-04-06T00:20:33;34.85;;;21.92;;
57848;SDS011;68645;44.762;21.516;2023-04-06T00:22:59;67.07;;;30.52;;
57848;SDS011;68645;44.762;21.516;2023-04-06T00:25:26;48.85;;;25.40;;
57848;SDS011;68645;44.762;21.516;2023-04-06T00:27:52;62.22;;;31.80;;
57848;SDS011;68645;44.762;21.516;2023-04-06T00:30:18;69.05;;;34.75;;
57848;SDS011;68645;44.762;21.516;2023-04-06T00:32:44;46.35;;;26.00;;
57848;SDS011;68645;44.762;21.516;2023-04-06T00:35:11;42.15;;;27.58;;
57848;SDS011;68645;44.762;21.516;2023-04-06T00:37:37;38.85;;;24.42;;
57848;SDS011;68645;44.762;21.516;2023-04-06T00:40:03;38.20;;;25.67;;
57848;SDS011;68645;44.762;21.516;2023-04-06T00:42:30;46.67;;;30.10;;
57848;SDS011;68645;44.762;21.516;2023-04-06T00:44:57;47.45;;;30.17;;
57848;SDS011;68645;44.762;21.516;2023-04-06T00:47:23;33.20;;;22.63;;
57848;SDS011;68645;44.762;21.516;2023-04-06T00:49:53;40.28;;;24.50;;
57848;SDS011;68645;44.762;21.516;2023-04-06T00:52:19;43.85;;;28.50;;
57848;SDS011;68645;44.762;21.516;2023-04-06T00:54:46;38.47;;;25.23;;
57848;SDS011;68645;44.762;21.516;2023-04-06T00:57:12;40.60;;;28.40;;
57848;SDS011;68645;44.762;21.516;2023-04-06T00:59:39;46.50;;;30.52;;
57848;SDS011;68645;44.762;21.516;2023-04-06T01:02:05;40.67;;;26.02;;
57848;SDS011;68645;44.762;21.516;2023-04-06T01:04:32;34.92;;;23.55;;
57848;SDS011;68645;44.762;21.516;2023-04-06T01:06:58;37.85;;;24.90;;
57848;SDS011;68645;44.762;21.516;2023-04-06T01:09:24;33.10;;;22.90;;
57848;SDS011;68645;44.762;21.516;2023-04-06T01:11:51;36.88;;;23.17;;
57848;SDS011;68645;44.762;21.516;2023-04-06T01:14:17;37.88;;;25.77;;
57848;SDS011;68645;44.762;21.516;2023-04-06T01:16:43;45.60;;;31.15;;
57848;SDS011;68645;44.762;21.516;2023-04-06T01:19:12;37.28;;;24.55;;
57848;SDS011;68645;44.762;21.516;2023-04-06T01:21:39;44.28;;;28.92;;
57848;SDS011;68645;44.762;21.516;2023-04-06T01:24:05;42.45;;;27.10;;
57848;SDS011;68645;44.762;21.516;2023-04-06T01:26:32;45.15;;;29.88;;
57848;SDS011;68645;44.762;21.516;2023-04-06T01:28:58;42.95;;;25.58;;
57848;SDS011;68645;44.762;21.516;2023-04-06T01:31:24;44.72;;;29.52;;
57848;SDS011;68645;44.762;21.516;2023-04-06T01:33:51;50.70;;;33.88;;
57848;SDS011;68645;44.762;21.516;2023-04-06T01:36:17;42.75;;;24.75;;
57848;SDS011;68645;44.762;21.516;2023-04-06T01:38:43;40.40;;;24.85;;
57848;SDS011;68645;44.762;21.516;2023-04-06T01:41:10;35.00;;;23.48;;
57848;SDS011;68645;44.762;21.516;2023-04-06T01:43:36;56.35;;;36.53;;
57848;SDS011;68645;44.762;21.516;2023-04-06T01:46:03;47.33;;;28.70;;
57848;SDS011;68645;44.762;21.516;2023-04-06T01:48:29;41.22;;;27.55;;
57848;SDS011;68645;44.762;21.516;2023-04-06T01:50:55;35.20;;;23.95;;
57848;SDS011;68645;44.762;21.516;2023-04-06T01:53:21;33.47;;;24.63;;
57848;SDS011;68645;44.762;21.516;2023-04-06T01:55:47;35.85;;;25.02;;
57848;SDS011;68645;44.762;21.516;2023-04-06T01:58:14;29.85;;;22.05;;
57848;SDS011;68645;44.762;21.516;2023-04-06T02:00:40;29.98;;;21.70;;
57848;SDS011;68645;44.762;21.516;2023-04-06T02:03:06;36.65;;;22.88;;
57848;SDS011;68645;44.762;21.516;2023-04-06T02:05:33;30.15;;;20.17;;
57848;SDS011;68645;44.762;21.516;2023-04-06T02:08:06;32.70;;;21.13;;
57848;SDS011;68645;44.762;21.516;2023-04-06T02:10:32;53.63;;;33.97;;
57848;SDS011;68645;44.762;21.516;2023-04-06T02:12:58;40.92;;;27.05;;
57848;SDS011;68645;44.762;21.516;2023-04-06T02:15:25;35.05;;;23.05;;
57848;SDS011;68645;44.762;21.516;2023-04-06T02:17:51;32.72;;;23.50;;
57848;SDS011;68645;44.762;21.516;2023-04-06T02:20:17;29.45;;;19.55;;
57848;SDS011;68645;44.762;21.516;2023-04-06T02:22:44;61.45;;;32.45;;
57848;SDS011;68645;44.762;21.516;2023-04-06T02:25:10;35.58;;;23.05;;
57848;SDS011;68645;44.762;21.516;2023-04-06T02:27:36;34.65;;;22.30;;
57848;SDS011;68645;44.762;21.516;2023-04-06T02:30:03;32.60;;;21.20;;
57848;SDS011;68645;44.762;21.516;2023-04-06T02:32:30;46.13;;;27.45;;
57848;SDS011;68645;44.762;21.516;2023-04-06T02:34:56;46.95;;;28.58;;
57848;SDS011;68645;44.762;21.516;2023-04-06T02:37:22;38.50;;;24.40;;
57848;SDS011;68645;44.762;21.516;2023-04-06T02:39:49;34.85;;;22.40;;
57848;SDS011;68645;44.762;21.516;2023-04-06T02:42:15;34.10;;;21.80;;
57848;SDS011;68645;44.762;21.516;2023-04-06T02:44:42;35.80;;;21.42;;
57848;SDS011;68645;44.762;21.516;2023-04-06T02:47:08;30.20;;;20.10;;
57848;SDS011;68645;44.762;21.516;2023-04-06T02:49:34;33.92;;;20.90;;
57848;SDS011;68645;44.762;21.516;2023-04-06T02:52:01;29.65;;;20.33;;
57848;SDS011;68645;44.762;21.516;2023-04-06T02:54:27;30.13;;;20.65;;
57848;SDS011;68645;44.762;21.516;2023-04-06T02:56:53;80.65;;;39.63;;
57848;SDS011;68645;44.762;21.516;2023-04-06T02:59:20;40.17;;;26.17;;
57848;SDS011;68645;44.762;21.516;2023-04-06T03:01:46;33.72;;;24.27;;
57848;SDS011;68645;44.762;21.516;2023-04-06T03:04:12;32.67;;;22.75;;
57848;SDS011;68645;44.762;21.516;2023-04-06T03:06:38;34.85;;;24.13;;
57848;SDS011;68645;44.762;21.516;2023-04-06T03:09:05;35.17;;;25.70;;
57848;SDS011;68645;44.762;21.516;2023-04-06T03:11:31;33.40;;;22.58;;
57848;SDS011;68645;44.762;21.516;2023-04-06T03:13:57;28.10;;;20.00;;
57848;SDS011;68645;44.762;21.516;2023-04-06T03:16:24;31.45;;;20.05;;
57848;SDS011;68645;44.762;21.516;2023-04-06T03:18:50;30.30;;;21.83;;
57848;SDS011;68645;44.762;21.516;2023-04-06T03:21:16;28.48;;;19.45;;
57848;SDS011;68645;44.762;21.516;2023-04-06T03:23:44;29.10;;;20.30;;
57848;SDS011;68645;44.762;21.516;2023-04-06T03:26:10;31.42;;;22.23;;
57848;SDS011;68645;44.762;21.516;2023-04-06T03:28:36;27.42;;;18.98;;
57848;SDS011;68645;44.762;21.516;2023-04-06T03:31:03;29.13;;;19.45;;
57848;SDS011;68645;44.762;21.516;2023-04-06T03:33:29;37.35;;;23.52;;
57848;SDS011;68645;44.762;21.516;2023-04-06T03:35:55;38.38;;;24.83;;
57848;SDS011;68645;44.762;21.516;2023-04-06T03:38:21;40.30;;;24.70;;
57848;SDS011;68645;44.762;21.516;2023-04-06T03:40:48;42.45;;;28.02;;
57848;SDS011;68645;44.762;21.516;2023-04-06T03:43:14;35.50;;;23.25;;
57848;SDS011;68645;44.762;21.516;2023-04-06T03:45:40;33.30;;;22.42;;
57848;SDS011;68645;44.762;21.516;2023-04-06T03:48:06;31.27;;;21.05;;
57848;SDS011;68645;44.762;21.516;2023-04-06T03:50:32;35.92;;;23.63;;
57848;SDS011;68645;44.762;21.516;2023-04-06T03:52:58;35.92;;;22.85;;
57848;SDS011;68645;44.762;21.516;2023-04-06T03:55:28;39.80;;;25.67;;
57848;SDS011;68645;44.762;21.516;2023-04-06T03:57:54;40.10;;;25.33;;
57848;SDS011;68645;44.762;21.516;2023-04-06T04:00:20;29.98;;;23.17;;
57848;SDS011;68645;44.762;21.516;2023-04-06T04:02:46;32.83;;;21.52;;
57848;SDS011;68645;44.762;21.516;2023-04-06T04:05:12;29.02;;;19.55;;
57848;SDS011;68645;44.762;21.516;2023-04-06T04:07:39;32.40;;;19.75;;
57848;SDS011;68645;44.762;21.516;2023-04-06T04:10:05;46.08;;;29.05;;
57848;SDS011;68645;44.762;21.516;2023-04-06T04:12:31;38.83;;;24.98;;
57848;SDS011;68645;44.762;21.516;2023-04-06T04:14:57;47.40;;;28.15;;
57848;SDS011;68645;44.762;21.516;2023-04-06T04:17:24;38.15;;;25.60;;
57848;SDS011;68645;44.762;21.516;2023-04-06T04:19:50;34.67;;;23.02;;
57848;SDS011;68645;44.762;21.516;2023-04-06T04:22:16;42.95;;;29.85;;
57848;SDS011;68645;44.762;21.516;2023-04-06T04:24:42;35.95;;;26.75;;
57848;SDS011;68645;44.762;21.516;2023-04-06T04:27:09;34.20;;;23.83;;
57848;SDS011;68645;44.762;21.516;2023-04-06T04:29:35;36.47;;;24.20;;
57848;SDS011;68645;44.762;21.516;2023-04-06T04:32:01;41.80;;;27.77;;
57848;SDS011;68645;44.762;21.516;2023-04-06T04:34:28;38.35;;;25.65;;
57848;SDS011;68645;44.762;21.516;2023-04-06T04:36:54;37.53;;;23.45;;
57848;SDS011;68645;44.762;21.516;2023-04-06T04:39:20;35.58;;;23.45;;
57848;SDS011;68645;44.762;21.516;2023-04-06T04:41:46;36.15;;;24.50;;
57848;SDS011;68645;44.762;21.516;2023-04-06T04:44:12;34.70;;;23.77;;
57848;SDS011;68645;44.762;21.516;2023-04-06T04:46:40;37.70;;;26.02;;
57848;SDS011;68645;44.762;21.516;2023-04-06T04:49:06;40.72;;;26.98;;
57848;SDS011;68645;44.762;21.516;2023-04-06T04:51:32;40.03;;;25.63;;
57848;SDS011;68645;44.762;21.516;2023-04-06T04:53:58;34.30;;;22.50;;
57848;SDS011;68645;44.762;21.516;2023-04-06T04:56:25;46.03;;;29.23;;
57848;SDS011;68645;44.762;21.516;2023-04-06T04:58:52;113.93;;;61.20;;
57848;SDS011;68645;44.762;21.516;2023-04-06T05:01:18;59.58;;;37.30;;
57848;SDS011;68645;44.762;21.516;2023-04-06T05:03:45;51.15;;;35.03;;
57848;SDS011;68645;44.762;21.516;2023-04-06T05:06:11;61.70;;;40.10;;
57848;SDS011;68645;44.762;21.516;2023-04-06T05:08:38;65.72;;;42.83;;
57848;SDS011;68645;44.762;21.516;2023-04-06T05:11:04;80.28;;;53.35;;
57848;SDS011;68645;44.762;21.516;2023-04-06T05:13:30;66.75;;;43.55;;
57848;SDS011;68645;44.762;21.516;2023-04-06T05:15:56;42.35;;;27.52;;
57848;SDS011;68645;44.762;21.516;2023-04-06T05:18:23;39.67;;;27.63;;
57848;SDS011;68645;44.762;21.516;2023-04-06T05:20:49;41.25;;;28.02;;
57848;SDS011;68645;44.762;21.516;2023-04-06T05:23:16;43.33;;;29.42;;
57848;SDS011;68645;44.762;21.516;2023-04-06T05:25:42;40.33;;;28.35;;
57848;SDS011;68645;44.762;21.516;2023-04-06T05:28:09;47.70;;;30.88;;
57848;SDS011;68645;44.762;21.516;2023-04-06T05:30:35;39.90;;;27.02;;
57848;SDS011;68645;44.762;21.516;2023-04-06T05:33:01;33.50;;;22.17;;
57848;SDS011;68645;44.762;21.516;2023-04-06T05:35:27;30.85;;;24.23;;
57848;SDS011;68645;44.762;21.516;2023-04-06T05:37:54;29.73;;;19.52;;
57848;SDS011;68645;44.762;21.516;2023-04-06T05:40:20;30.75;;;20.15;;
57848;SDS011;68645;44.762;21.516;2023-04-06T05:42:46;33.83;;;23.35;;
57848;SDS011;68645;44.762;21.516;2023-04-06T05:45:14;29.95;;;20.80;;
57848;SDS011;68645;44.762;21.516;2023-04-06T05:47:44;27.27;;;17.23;;
57848;SDS011;68645;44.762;21.516;2023-04-06T05:50:11;23.52;;;15.40;;
57848;SDS011;68645;44.762;21.516;2023-04-06T05:52:37;24.45;;;17.45;;
57848;SDS011;68645;44.762;21.516;2023-04-06T05:55:03;24.98;;;18.23;;
57848;SDS011;68645;44.762;21.516;2023-04-06T05:57:30;25.00;;;18.08;;
57848;SDS011;68645;44.762;21.516;2023-04-06T05:59:56;26.65;;;18.08;;
57848;SDS011;68645;44.762;21.516;2023-04-06T06:02:22;27.00;;;17.42;;
57848;SDS011;68645;44.762;21.516;2023-04-06T06:04:48;26.63;;;16.67;;
57848;SDS011;68645;44.762;21.516;2023-04-06T06:07:15;31.67;;;20.90;;
57848;SDS011;68645;44.762;21.516;2023-04-06T06:09:41;27.02;;;17.88;;
57848;SDS011;68645;44.762;21.516;2023-04-06T06:12:07;33.67;;;22.27;;
57848;SDS011;68645;44.762;21.516;2023-04-06T06:14:33;48.88;;;26.73;;
57848;SDS011;68645;44.762;21.516;2023-04-06T06:16:59;48.75;;;25.13;;
57848;SDS011;68645;44.762;21.516;2023-04-06T06:19:26;36.63;;;21.83;;
57848;SDS011;68645;44.762;21.516;2023-04-06T06:21:52;29.13;;;18.40;;
57848;SDS011;68645;44.762;21.516;2023-04-06T06:24:18;24.63;;;16.15;;
57848;SDS011;68645;44.762;21.516;2023-04-06T06:26:44;20.58;;;13.75;;
57848;SDS011;68645;44.762;21.516;2023-04-06T06:29:11;17.70;;;13.23;;
57848;SDS011;68645;44.762;21.516;2023-04-06T06:31:37;18.15;;;12.65;;
57848;SDS011;68645;44.762;21.516;2023-04-06T06:34:03;18.85;;;14.82;;
57848;SDS011;68645;44.762;21.516;2023-04-06T06:36:29;18.02;;;12.55;;
57848;SDS011;68645;44.762;21.516;2023-04-06T06:38:56;19.08;;;13.55;;
57848;SDS011;68645;44.762;21.516;2023-04-06T06:41:25;18.95;;;12.82;;
57848;SDS011;68645;44.762;21.516;2023-04-06T06:43:51;19.95;;;13.32;;
57848;SDS011;68645;44.762;21.516;2023-04-06T06:46:17;14.93;;;11.98;;
57848;SDS011;68645;44.762;21.516;2023-04-06T06:48:44;19.63;;;13.95;;
57848;SDS011;68645;44.762;21.516;2023-04-06T06:51:11;26.58;;;13.60;;
57848;SDS011;68645;44.762;21.516;2023-04-06T06:53:37;23.15;;;14.60;;
57848;SDS011;68645;44.762;21.516;2023-04-06T06:56:03;48.28;;;17.45;;
57848;SDS011;68645;44.762;21.516;2023-04-06T06:58:29;24.98;;;14.00;;
57848;SDS011;68645;44.762;21.516;2023-04-06T07:00:56;90.93;;;20.08;;
57848;SDS011;68645;44.762;21.516;2023-04-06T07:03:22;19.02;;;13.57;;
57848;SDS011;68645;44.762;21.516;2023-04-06T07:05:49;40.85;;;16.35;;
57848;SDS011;68645;44.762;21.516;2023-04-06T07:08:18;28.50;;;14.35;;
57848;SDS011;68645;44.762;21.516;2023-04-06T07:10:45;37.90;;;14.60;;
57848;SDS011;68645;44.762;21.516;2023-04-06T07:13:11;26.95;;;14.43;;
57848;SDS011;68645;44.762;21.516;2023-04-06T07:15:39;23.10;;;15.95;;
57848;SDS011;68645;44.762;21.516;2023-04-06T07:18:06;18.90;;;12.13;;
57848;SDS011;68645;44.762;21.516;2023-04-06T07:20:32;20.02;;;12.32;;
57848;SDS011;68645;44.762;21.516;2023-04-06T07:22:58;18.38;;;12.10;;
57848;SDS011;68645;44.762;21.516;2023-04-06T07:25:24;23.48;;;12.68;;
57848;SDS011;68645;44.762;21.516;2023-04-06T07:27:50;15.95;;;11.02;;
57848;SDS011;68645;44.762;21.516;2023-04-06T07:30:17;52.50;;;13.50;;
57848;SDS011;68645;44.762;21.516;2023-04-06T07:32:43;17.40;;;11.75;;
57848;SDS011;68645;44.762;21.516;2023-04-06T07:35:10;16.95;;;10.95;;
57848;SDS011;68645;44.762;21.516;2023-04-06T07:37:36;15.25;;;10.73;;
57848;SDS011;68645;44.762;21.516;2023-04-06T07:40:02;16.05;;;11.52;;
57848;SDS011;68645;44.762;21.516;2023-04-06T07:42:29;15.38;;;11.00;;
57848;SDS011;68645;44.762;21.516;2023-04-06T07:44:55;20.30;;;11.63;;
57848;SDS011;68645;44.762;21.516;2023-04-06T07:47:22;29.15;;;13.07;;
57848;SDS011;68645;44.762;21.516;2023-04-06T07:49:48;18.83;;;12.18;;
57848;SDS011;68645;44.762;21.516;2023-04-06T07:52:15;22.25;;;13.50;;
57848;SDS011;68645;44.762;21.516;2023-04-06T07:54:41;18.77;;;13.52;;
57848;SDS011;68645;44.762;21.516;2023-04-06T07:57:07;28.48;;;14.80;;
57848;SDS011;68645;44.762;21.516;2023-04-06T07:59:33;21.50;;;13.90;;
57848;SDS011;68645;44.762;21.516;2023-04-06T08:02:00;26.10;;;14.90;;
57848;SDS011;68645;44.762;21.516;2023-04-06T08:04:26;25.35;;;15.15;;
57848;SDS011;68645;44.762;21.516;2023-04-06T08:06:52;16.98;;;12.10;;
57848;SDS011;68645;44.762;21.516;2023-04-06T08:09:18;23.40;;;13.35;;
57848;SDS011;68645;44.762;21.516;2023-04-06T08:11:44;33.08;;;16.92;;
57848;SDS011;68645;44.762;21.516;2023-04-06T08:14:12;24.10;;;13.55;;
57848;SDS011;68645;44.762;21.516;2023-04-06T08:16:39;21.33;;;11.95;;
57848;SDS011;68645;44.762;21.516;2023-04-06T08:19:05;18.10;;;12.57;;
57848;SDS011;68645;44.762;21.516;2023-04-06T08:21:34;19.35;;;12.30;;
57848;SDS011;68645;44.762;21.516;2023-04-06T08:24:01;19.77;;;12.95;;
57848;SDS011;68645;44.762;21.516;2023-04-06T08:26:27;20.73;;;11.73;;
57848;SDS011;68645;44.762;21.516;2023-04-06T08:28:53;15.82;;;10.98;;
57848;SDS011;68645;44.762;21.516;2023-04-06T08:31:20;16.48;;;11.18;;
57848;SDS011;68645;44.762;21.516;2023-04-06T08:33:46;19.52;;;11.57;;
57848;SDS011;68645;44.762;21.516;2023-04-06T08:36:13;25.35;;;13.43;;
57848;SDS011;68645;44.762;21.516;2023-04-06T08:38:40;17.30;;;10.65;;
57848;SDS011;68645;44.762;21.516;2023-04-06T08:41:11;25.40;;;10.95;;
57848;SDS011;68645;44.762;21.516;2023-04-06T08:46:06;33.70;;;11.85;;
57848;SDS011;68645;44.762;21.516;2023-04-06T08:48:32;46.22;;;12.45;;
57848;SDS011;68645;44.762;21.516;2023-04-06T08:50:59;17.13;;;10.30;;
57848;SDS011;68645;44.762;21.516;2023-04-06T08:53:25;13.13;;;9.35;;
57848;SDS011;68645;44.762;21.516;2023-04-06T08:55:51;23.45;;;10.55;;
57848;SDS011;68645;44.762;21.516;2023-04-06T08:58:18;23.50;;;10.82;;
57848;SDS011;68645;44.762;21.516;2023-04-06T09:00:46;16.50;;;8.90;;
57848;SDS011;68645;44.762;21.516;2023-04-06T09:03:12;21.13;;;9.23;;
57848;SDS011;68645;44.762;21.516;2023-04-06T09:05:39;22.83;;;8.57;;
57848;SDS011;68645;44.762;21.516;2023-04-06T09:08:05;15.18;;;7.22;;
57848;SDS011;68645;44.762;21.516;2023-04-06T09:10:32;12.20;;;7.85;;
57848;SDS011;68645;44.762;21.516;2023-04-06T09:13:02;14.73;;;7.97;;
57848;SDS011;68645;44.762;21.516;2023-04-06T09:15:29;16.45;;;6.95;;
57848;SDS011;68645;44.762;21.516;2023-04-06T09:17:55;12.50;;;8.05;;
57848;SDS011;68645;44.762;21.516;2023-04-06T09:20:22;11.35;;;7.57;;
57848;SDS011;68645;44.762;21.516;2023-04-06T09:22:51;7.93;;;6.78;;
57848;SDS011;68645;44.762;21.516;2023-04-06T09:25:18;11.13;;;8.02;;
57848;SDS011;68645;44.762;21.516;2023-04-06T09:27:46;10.88;;;8.13;;
57848;SDS011;68645;44.762;21.516;2023-04-06T09:30:12;10.98;;;7.47;;
57848;SDS011;68645;44.762;21.516;2023-04-06T09:32:46;11.98;;;7.90;;
57848;SDS011;68645;44.762;21.516;2023-04-06T09:35:12;13.57;;;9.73;;
57848;SDS011;68645;44.762;21.516;2023-04-06T09:37:38;11.85;;;8.88;;
57848;SDS011;68645;44.762;21.516;2023-04-06T09:40:05;11.77;;;8.82;;
57848;SDS011;68645;44.762;21.516;2023-04-06T09:42:32;13.23;;;8.23;;
57848;SDS011;68645;44.762;21.516;2023-04-06T09:45:00;11.48;;;7.72;;
57848;SDS011;68645;44.762;21.516;2023-04-06T09:47:26;11.90;;;8.35;;
57848;SDS011;68645;44.762;21.516;2023-04-06T09:49:56;15.20;;;9.10;;
57848;SDS011;68645;44.762;21.516;2023-04-06T09:52:41;14.25;;;9.38;;
57848;SDS011;68645;44.762;21.516;2023-04-06T09:55:08;18.80;;;8.15;;
57848;SDS011;68645;44.762;21.516;2023-04-06T10:05:12;24.65;;;8.10;;
57848;SDS011;68645;44.762;21.516;2023-04-06T10:07:42;13.90;;;6.88;;
57848;SDS011;68645;44.762;21.516;2023-04-06T10:10:09;49.10;;;9.65;;
57848;SDS011;68645;44.762;21.516;2023-04-06T10:12:36;23.98;;;8.25;;
57848;SDS011;68645;44.762;21.516;2023-04-06T10:15:03;16.98;;;7.80;;
57848;SDS011;68645;44.762;21.516;2023-04-06T10:17:29;28.55;;;9.13;;
57848;SDS011;68645;44.762;21.516;2023-04-06T10:20:39;17.15;;;8.65;;
57848;SDS011;68645;44.762;21.516;2023-04-06T10:22:51;12.27;;;7.03;;
57848;SDS011;68645;44.762;21.516;2023-04-06T10:25:31;19.20;;;8.05;;
57848;SDS011;68645;44.762;21.516;2023-04-06T10:28:07;19.63;;;9.82;;
57848;SDS011;68645;44.762;21.516;2023-04-06T10:30:33;21.63;;;10.85;;
57848;SDS011;68645;44.762;21.516;2023-04-06T10:33:00;24.70;;;10.30;;
57848;SDS011;68645;44.762;21.516;2023-04-06T10:35:36;18.77;;;9.45;;
57848;SDS011;68645;44.762;21.516;2023-04-06T10:38:03;24.38;;;9.32;;
57848;SDS011;68645;44.762;21.516;2023-04-06T10:40:30;21.75;;;9.45;;
57848;SDS011;68645;44.762;21.516;2023-04-06T10:43:09;30.27;;;9.82;;
57848;SDS011;68645;44.762;21.516;2023-04-06T10:45:36;19.75;;;7.93;;
57848;SDS011;68645;44.762;21.516;2023-04-06T10:50:41;11.02;;;7.38;;
57848;SDS011;68645;44.762;21.516;2023-04-06T10:53:08;11.10;;;7.28;;
57848;SDS011;68645;44.762;21.516;2023-04-06T10:55:34;14.20;;;8.32;;
57848;SDS011;68645;44.762;21.516;2023-04-06T10:58:07;14.77;;;8.23;;
57848;SDS011;68645;44.762;21.516;2023-04-06T11:00:34;15.52;;;8.05;;
57848;SDS011;68645;44.762;21.516;2023-04-06T11:03:01;16.00;;;8.82;;
57848;SDS011;68645;44.762;21.516;2023-04-06T11:05:27;11.98;;;7.75;;
57848;SDS011;68645;44.762;21.516;2023-04-06T11:07:53;15.45;;;9.73;;
57848;SDS011;68645;44.762;21.516;2023-04-06T11:10:20;12.75;;;8.38;;
57848;SDS011;68645;44.762;21.516;2023-04-06T11:12:52;13.48;;;8.48;;
57848;SDS011;68645;44.762;21.516;2023-04-06T11:15:18;18.45;;;11.73;;
57848;SDS011;68645;44.762;21.516;2023-04-06T11:17:45;15.07;;;10.43;;
57848;SDS011;68645;44.762;21.516;2023-04-06T11:20:11;21.23;;;12.15;;
57848;SDS011;68645;44.762;21.516;2023-04-06T11:22:50;17.83;;;11.05;;
57848;SDS011;68645;44.762;21.516;2023-04-06T11:25:17;22.02;;;13.38;;
57848;SDS011;68645;44.762;21.516;2023-04-06T11:27:44;18.58;;;11.10;;
57848;SDS011;68645;44.762;21.516;2023-04-06T11:30:11;18.15;;;11.07;;
57848;SDS011;68645;44.762;21.516;2023-04-06T11:32:44;22.75;;;13.48;;
57848;SDS011;68645;44.762;21.516;2023-04-06T11:35:21;28.23;;;16.30;;
57848;SDS011;68645;44.762;21.516;2023-04-06T11:37:50;28.48;;;15.82;;
57848;SDS011;68645;44.762;21.516;2023-04-06T11:40:23;18.15;;;11.35;;
57848;SDS011;68645;44.762;21.516;2023-04-06T11:42:56;20.50;;;11.65;;
57848;SDS011;68645;44.762;21.516;2023-04-06T11:45:22;16.30;;;10.63;;
57848;SDS011;68645;44.762;21.516;2023-04-06T11:47:55;40.92;;;25.98;;
57848;SDS011;68645;44.762;21.516;2023-04-06T11:50:22;29.70;;;17.58;;
57848;SDS011;68645;44.762;21.516;2023-04-06T11:52:57;48.80;;;27.38;;
57848;SDS011;68645;44.762;21.516;2023-04-06T11:55:24;31.75;;;16.70;;
57848;SDS011;68645;44.762;21.516;2023-04-06T11:57:50;15.00;;;10.05;;
57848;SDS011;68645;44.762;21.516;2023-04-06T12:00:17;21.95;;;14.65;;
57848;SDS011;68645;44.762;21.516;2023-04-06T12:02:46;23.67;;;14.35;;
57848;SDS011;68645;44.762;21.516;2023-04-06T12:05:13;15.50;;;9.65;;
57848;SDS011;68645;44.762;21.516;2023-04-06T12:07:39;21.23;;;14.25;;
57848;SDS011;68645;44.762;21.516;2023-04-06T12:10:05;18.27;;;10.77;;
57848;SDS011;68645;44.762;21.516;2023-04-06T12:12:32;17.88;;;9.70;;
57848;SDS011;68645;44.762;21.516;2023-04-06T12:14:58;14.40;;;10.60;;
57848;SDS011;68645;44.762;21.516;2023-04-06T12:17:25;20.35;;;13.77;;
57848;SDS011;68645;44.762;21.516;2023-04-06T12:19:51;15.50;;;9.43;;
57848;SDS011;68645;44.762;21.516;2023-04-06T12:22:17;13.68;;;9.75;;
57848;SDS011;68645;44.762;21.516;2023-04-06T12:24:43;18.90;;;12.30;;
57848;SDS011;68645;44.762;21.516;2023-04-06T12:27:10;12.88;;;9.40;;
57848;SDS011;68645;44.762;21.516;2023-04-06T12:29:37;11.15;;;8.73;;
57848;SDS011;68645;44.762;21.516;2023-04-06T12:32:03;11.68;;;8.23;;
57848;SDS011;68645;44.762;21.516;2023-04-06T12:34:31;16.40;;;11.88;;
57848;SDS011;68645;44.762;21.516;2023-04-06T12:36:57;13.13;;;8.45;;
57848;SDS011;68645;44.762;21.516;2023-04-06T12:39:23;12.80;;;9.55;;
57848;SDS011;68645;44.762;21.516;2023-04-06T12:41:50;13.90;;;7.70;;
57848;SDS011;68645;44.762;21.516;2023-04-06T12:44:17;14.38;;;7.97;;
57848;SDS011;68645;44.762;21.516;2023-04-06T12:46:43;16.60;;;11.48;;
57848;SDS011;68645;44.762;21.516;2023-04-06T12:49:10;15.55;;;9.18;;
57848;SDS011;68645;44.762;21.516;2023-04-06T12:51:36;14.32;;;9.32;;
57848;SDS011;68645;44.762;21.516;2023-04-06T12:54:02;15.35;;;10.00;;
57848;SDS011;68645;44.762;21.516;2023-04-06T12:56:29;19.60;;;11.25;;
57848;SDS011;68645;44.762;21.516;2023-04-06T12:58:56;23.00;;;12.27;;
57848;SDS011;68645;44.762;21.516;2023-04-06T13:01:22;16.67;;;9.65;;
57848;SDS011;68645;44.762;21.516;2023-04-06T13:03:48;14.93;;;8.52;;
57848;SDS011;68645;44.762;21.516;2023-04-06T13:06:15;12.10;;;8.75;;
57848;SDS011;68645;44.762;21.516;2023-04-06T13:08:41;28.10;;;19.20;;
57848;SDS011;68645;44.762;21.516;2023-04-06T13:11:07;32.22;;;19.08;;
57848;SDS011;68645;44.762;21.516;2023-04-06T13:13:34;33.40;;;22.17;;
57848;SDS011;68645;44.762;21.516;2023-04-06T13:16:02;35.83;;;23.63;;
57848;SDS011;68645;44.762;21.516;2023-04-06T13:18:29;37.40;;;25.38;;
57848;SDS011;68645;44.762;21.516;2023-04-06T13:20:55;24.30;;;15.55;;
57848;SDS011;68645;44.762;21.516;2023-04-06T13:23:22;21.23;;;12.73;;
57848;SDS011;68645;44.762;21.516;2023-04-06T13:25:56;17.60;;;12.57;;
57848;SDS011;68645;44.762;21.516;2023-04-06T13:28:23;17.55;;;11.20;;
57848;SDS011;68645;44.762;21.516;2023-04-06T13:30:49;18.90;;;13.20;;
57848;SDS011;68645;44.762;21.516;2023-04-06T13:33:16;19.70;;;13.27;;
57848;SDS011;68645;44.762;21.516;2023-04-06T13:35:44;19.70;;;14.18;;
57848;SDS011;68645;44.762;21.516;2023-04-06T13:38:10;30.73;;;19.20;;
57848;SDS011;68645;44.762;21.516;2023-04-06T13:40:40;30.00;;;19.70;;
57848;SDS011;68645;44.762;21.516;2023-04-06T13:43:06;37.38;;;26.83;;
57848;SDS011;68645;44.762;21.516;2023-04-06T13:45:33;28.55;;;16.98;;
57848;SDS011;68645;44.762;21.516;2023-04-06T13:47:59;33.47;;;19.73;;
57848;SDS011;68645;44.762;21.516;2023-04-06T13:50:26;26.02;;;17.73;;
57848;SDS011;68645;44.762;21.516;2023-04-06T13:52:52;18.05;;;12.88;;
57848;SDS011;68645;44.762;21.516;2023-04-06T13:55:18;23.98;;;14.88;;
57848;SDS011;68645;44.762;21.516;2023-04-06T13:57:44;19.70;;;11.30;;
57848;SDS011;68645;44.762;21.516;2023-04-06T14:00:11;15.65;;;10.38;;
57848;SDS011;68645;44.762;21.516;2023-04-06T14:02:38;20.73;;;13.68;;
57848;SDS011;68645;44.762;21.516;2023-04-06T14:05:05;16.75;;;10.07;;
57848;SDS011;68645;44.762;21.516;2023-04-06T14:07:31;18.38;;;9.90;;
57848;SDS011;68645;44.762;21.516;2023-04-06T14:09:58;14.07;;;9.32;;
57848;SDS011;68645;44.762;21.516;2023-04-06T14:12:25;19.92;;;10.35;;
57848;SDS011;68645;44.762;21.516;2023-04-06T14:14:52;14.68;;;10.93;;
57848;SDS011;68645;44.762;21.516;2023-04-06T14:17:18;22.55;;;13.23;;
57848;SDS011;68645;44.762;21.516;2023-04-06T14:19:44;20.73;;;13.00;;
57848;SDS011;68645;44.762;21.516;2023-04-06T14:22:10;22.25;;;13.15;;